Time;durP1;ratioP1;P1;durP2;ratioP2;P2;SDS_P1;SDS_P2;PMS_P1;PMS_P2;Temp;Humidity;BMP_temperature;BMP_pressure;BME280_temperature;BME280_humidity;BME280_pressure;Samples;Min_cycle;Max_cycle;Signal;HPM_P1;HPM_P2
2022/01/10 00:02:24;;;;;;;23.10;6.93;;;2.90;99.90;;;;;;5035207;28;20044;-79
2022/01/10 00:04:50;;;;;;;26.92;6.97;;;2.90;99.90;;;;;;5032200;28;20193;-80
2022/01/10 00:07:16;;;;;;;28.25;7.57;;;2.90;99.90;;;;;;5033373;28;20076;-79
2022/01/10 00:09:42;;;;;;;29.73;6.50;;;2.80;99.90;;;;;;5030675;28;20483;-80
2022/01/10 00:12:08;;;;;;;23.70;7.68;;;2.90;99.90;;;;;;5033688;28;20527;-79
2022/01/10 00:14:34;;;;;;;28.67;6.72;;;2.80;99.90;;;;;;5020553;28;20029;-79
2022/01/10 00:17:00;;;;;;;20.48;6.90;;;2.80;99.90;;;;;;5030582;28;20307;-80
2022/01/10 00:19:25;;;;;;;29.25;7.00;;;2.80;99.90;;;;;;5019361;28;20048;-79
2022/01/10 00:21:51;;;;;;;27.50;7.15;;;2.80;99.90;;;;;;5020894;28;20484;-80
2022/01/10 00:24:17;;;;;;;28.30;7.40;;;2.70;99.90;;;;;;5019819;28;20040;-80
2022/01/10 00:26:42;;;;;;;22.40;7.50;;;2.80;99.90;;;;;;5035029;28;20033;-80
2022/01/10 00:29:08;;;;;;;21.83;7.50;;;2.80;99.90;;;;;;5020397;28;20344;-79
2022/01/10 00:31:34;;;;;;;27.63;6.88;;;2.80;99.90;;;;;;5033292;28;20030;-80
2022/01/10 00:33:59;;;;;;;27.35;7.35;;;2.70;99.90;;;;;;5031967;28;20053;-80
2022/01/10 00:36:26;;;;;;;26.40;7.55;;;2.80;99.90;;;;;;5021863;28;20445;-80
2022/01/10 00:38:52;;;;;;;30.77;7.28;;;2.70;99.90;;;;;;5031816;28;20120;-79
2022/01/10 00:41:17;;;;;;;28.27;7.28;;;2.70;99.90;;;;;;5029755;28;20033;-80
2022/01/10 00:43:46;;;;;;;22.80;6.55;;;2.60;99.90;;;;;;5019673;28;20041;-80
2022/01/10 00:46:12;;;;;;;27.60;7.47;;;2.60;99.90;;;;;;5001785;28;20049;-79
2022/01/10 00:48:38;;;;;;;31.50;7.30;;;2.60;99.90;;;;;;5038472;28;20040;-80
2022/01/10 00:51:04;;;;;;;29.38;8.13;;;2.50;99.90;;;;;;5019105;28;20481;-79
2022/01/10 00:53:30;;;;;;;25.50;7.93;;;2.50;99.90;;;;;;5019785;28;20049;-79
2022/01/10 00:55:56;;;;;;;27.95;7.50;;;2.50;99.90;;;;;;5046294;28;20067;-80
2022/01/10 00:58:22;;;;;;;29.35;7.05;;;2.50;99.90;;;;;;5006192;28;20050;-80
2022/01/10 01:00:48;;;;;;;25.08;6.97;;;2.50;99.90;;;;;;5032443;28;20821;-79
2022/01/10 01:03:14;;;;;;;23.05;7.72;;;2.40;99.90;;;;;;5005346;28;20567;-79
2022/01/10 01:05:42;;;;;;;26.67;7.82;;;2.50;99.90;;;;;;5023924;28;20898;-79
2022/01/10 01:08:09;;;;;;;27.98;7.65;;;2.40;99.90;;;;;;5023880;28;20057;-80
2022/01/10 01:13:24;;;;;;;23.58;8.02;;;2.40;99.90;;;;;;5022154;28;20045;-80
2022/01/10 01:19:07;;;;;;;26.95;7.88;;;2.40;99.90;;;;;;5035465;28;20060;-80
2022/01/10 01:24:13;;;;;;;29.13;7.80;;;2.40;99.90;;;;;;5036569;28;20032;-80
2022/01/10 01:26:41;;;;;;;27.80;8.75;;;2.20;99.90;;;;;;5035325;28;20167;-80
2022/01/10 01:29:09;;;;;;;30.58;8.00;;;2.20;99.90;;;;;;5013447;28;20068;-80
2022/01/10 01:31:36;;;;;;;23.17;8.30;;;2.10;99.90;;;;;;5031523;28;20534;-80
2022/01/10 01:34:03;;;;;;;22.73;7.93;;;2.20;99.90;;;;;;5029170;28;20421;-80
2022/01/10 01:36:30;;;;;;;27.98;8.40;;;2.20;99.90;;;;;;5020948;28;20115;-80
2022/01/10 01:38:57;;;;;;;25.80;7.93;;;2.20;99.90;;;;;;5014160;28;20046;-80
2022/01/10 01:41:36;;;;;;;24.23;7.75;;;2.10;99.90;;;;;;5010628;28;20983;-80
2022/01/10 01:44:03;;;;;;;27.85;7.60;;;2.00;99.90;;;;;;5016623;28;20382;-79
2022/01/10 01:46:29;;;;;;;28.92;8.35;;;2.00;99.90;;;;;;5013099;28;20416;-80
2022/01/10 01:48:56;;;;;;;27.80;9.07;;;2.10;99.90;;;;;;4999234;28;20401;-80
2022/01/10 01:51:22;;;;;;;26.75;8.63;;;2.10;99.90;;;;;;5014901;28;20079;-80
2022/01/10 01:53:49;;;;;;;25.52;8.23;;;2.10;99.90;;;;;;4998516;28;20041;-80
2022/01/10 01:56:16;;;;;;;30.70;8.38;;;2.00;99.90;;;;;;5013636;28;20037;-80
2022/01/10 01:58:43;;;;;;;27.83;8.57;;;2.20;99.90;;;;;;5016936;28;20524;-80
2022/01/10 02:01:10;;;;;;;29.05;8.55;;;2.10;99.90;;;;;;4984325;28;20124;-80
2022/01/10 02:03:41;;;;;;;30.42;9.02;;;2.00;99.90;;;;;;5016855;28;20045;-80
2022/01/10 02:06:08;;;;;;;37.30;8.82;;;2.00;99.90;;;;;;5015101;28;20048;-80
2022/01/10 02:08:35;;;;;;;32.85;10.40;;;2.00;99.90;;;;;;5018367;28;20049;-80
2022/01/10 02:11:03;;;;;;;26.38;8.82;;;2.00;99.90;;;;;;5011904;28;20068;-80
2022/01/10 02:13:28;;;;;;;25.83;8.60;;;1.90;99.90;;;;;;5016665;28;20100;-80
2022/01/10 02:16:01;;;;;;;30.63;8.63;;;1.90;99.90;;;;;;4997623;28;20053;-79
2022/01/10 02:18:27;;;;;;;31.50;9.10;;;1.80;99.90;;;;;;4988022;28;20041;-80
2022/01/10 02:20:54;;;;;;;32.42;9.20;;;1.80;99.90;;;;;;5018645;28;21361;-80
2022/01/10 02:23:20;;;;;;;26.45;8.38;;;1.70;99.90;;;;;;4992641;28;20061;-81
2022/01/10 02:25:47;;;;;;;33.80;9.80;;;1.70;99.90;;;;;;5015143;28;20109;-81
2022/01/10 02:28:13;;;;;;;26.10;9.65;;;1.70;99.90;;;;;;5013759;28;20419;-81
2022/01/10 02:30:39;;;;;;;30.77;8.40;;;1.50;99.90;;;;;;4994961;28;20049;-80
2022/01/10 02:33:05;;;;;;;24.20;8.68;;;1.50;99.90;;;;;;4995720;28;20165;-80
2022/01/10 02:35:43;;;;;;;24.70;8.80;;;1.40;99.90;;;;;;5017595;28;20030;-80
2022/01/10 02:38:09;;;;;;;32.92;9.18;;;1.40;99.90;;;;;;4996173;28;20133;-80
2022/01/10 02:40:35;;;;;;;36.53;10.13;;;1.40;99.90;;;;;;5033279;28;20460;-80
2022/01/10 02:43:06;;;;;;;31.60;10.07;;;1.40;99.90;;;;;;5017088;28;20033;-80
2022/01/10 02:45:32;;;;;;;26.15;8.70;;;1.40;99.90;;;;;;5012885;28;20397;-81
2022/01/10 02:47:57;;;;;;;21.02;8.50;;;1.30;99.90;;;;;;5017083;28;20041;-80
2022/01/10 02:50:23;;;;;;;27.33;9.77;;;1.20;99.90;;;;;;5036207;28;20080;-80
2022/01/10 02:52:49;;;;;;;24.80;9.60;;;1.20;99.90;;;;;;5032298;28;20203;-81
2022/01/10 02:55:15;;;;;;;23.08;9.50;;;1.20;99.90;;;;;;5030856;28;22052;-81
2022/01/10 02:57:41;;;;;;;30.63;10.15;;;1.10;99.90;;;;;;5021426;28;20044;-80
2022/01/10 03:00:17;;;;;;;30.95;11.15;;;1.20;99.90;;;;;;5012254;28;20045;-81
2022/01/10 03:02:44;;;;;;;30.58;11.43;;;1.10;99.90;;;;;;5030287;28;20032;-81
2022/01/10 03:05:10;;;;;;;36.88;10.38;;;1.10;99.90;;;;;;5022145;28;20118;-81
2022/01/10 03:07:38;;;;;;;30.10;10.25;;;1.10;99.90;;;;;;5034034;28;20040;-80
2022/01/10 03:10:07;;;;;;;32.70;10.93;;;1.10;99.90;;;;;;5031709;28;20045;-81
2022/01/10 03:12:37;;;;;;;38.80;12.30;;;1.20;99.90;;;;;;5035905;28;20045;-80
2022/01/10 03:15:07;;;;;;;32.05;11.73;;;1.30;99.90;;;;;;5004803;28;20520;-81
2022/01/10 03:17:34;;;;;;;57.05;13.80;;;1.20;99.90;;;;;;5038102;28;20033;-81
2022/01/10 03:20:00;;;;;;;80.72;13.63;;;1.20;99.90;;;;;;5017539;28;20041;-80
2022/01/10 03:22:26;;;;;;;80.18;13.88;;;1.20;99.90;;;;;;5018592;28;20053;-81
2022/01/10 03:24:55;;;;;;;43.15;11.63;;;1.10;99.90;;;;;;5036758;28;20203;-81
2022/01/10 03:27:21;;;;;;;66.72;15.38;;;1.10;99.90;;;;;;5021035;28;20048;-81
2022/01/10 03:29:47;;;;;;;36.95;12.45;;;1.00;99.90;;;;;;5017007;28;20049;-81
2022/01/10 03:32:13;;;;;;;48.67;15.25;;;1.10;99.90;;;;;;5036251;28;20088;-81
2022/01/10 03:34:39;;;;;;;43.72;14.10;;;1.00;99.90;;;;;;5002534;28;20567;-81
2022/01/10 03:37:05;;;;;;;45.95;15.48;;;1.10;99.90;;;;;;5033140;28;20037;-81
2022/01/10 03:39:31;;;;;;;44.60;15.77;;;1.20;99.90;;;;;;5033809;28;20231;-80
2022/01/10 03:41:56;;;;;;;50.05;15.80;;;1.20;99.90;;;;;;5021355;28;20149;-81
2022/01/10 03:44:23;;;;;;;46.75;16.33;;;1.20;99.90;;;;;;5017568;28;20184;-81
2022/01/10 03:46:49;;;;;;;41.63;16.17;;;1.30;99.90;;;;;;5015049;28;20067;-80
2022/01/10 03:49:15;;;;;;;49.28;16.75;;;1.30;99.90;;;;;;5013777;28;20065;-82
2022/01/10 03:51:41;;;;;;;47.42;16.58;;;1.20;99.90;;;;;;5012432;28;20049;-81
2022/01/10 03:54:06;;;;;;;55.42;16.42;;;1.20;99.90;;;;;;5017881;28;20036;-82
2022/01/10 03:56:32;;;;;;;48.55;17.00;;;1.20;99.90;;;;;;5040155;28;20048;-82
2022/01/10 03:58:59;;;;;;;40.60;14.93;;;1.10;99.90;;;;;;5013487;28;20036;-82
2022/01/10 04:01:25;;;;;;;59.58;16.23;;;1.10;99.90;;;;;;5016922;28;20037;-82
2022/01/10 04:03:51;;;;;;;34.03;14.13;;;1.10;99.90;;;;;;5013073;28;20037;-82
2022/01/10 04:06:17;;;;;;;70.32;18.90;;;1.10;99.90;;;;;;5017356;28;20158;-81
2022/01/10 04:08:43;;;;;;;44.17;16.77;;;1.10;99.90;;;;;;5038488;28;20408;-82
2022/01/10 04:11:09;;;;;;;51.63;17.48;;;1.10;99.90;;;;;;5013819;28;20164;-82
2022/01/10 04:13:34;;;;;;;46.58;16.70;;;1.00;99.90;;;;;;5015291;28;20108;-82
2022/01/10 04:16:00;;;;;;;49.65;16.80;;;1.10;99.90;;;;;;5004514;28;20055;-82
2022/01/10 04:18:26;;;;;;;53.55;17.63;;;1.10;99.90;;;;;;5016246;28;20095;-81
2022/01/10 04:20:51;;;;;;;60.58;18.73;;;1.00;99.90;;;;;;5036490;28;20041;-82
2022/01/10 04:23:17;;;;;;;69.13;20.13;;;1.00;99.90;;;;;;5031190;28;20025;-82
2022/01/10 04:25:43;;;;;;;57.63;18.27;;;1.10;99.90;;;;;;5029767;28;20407;-82
2022/01/10 04:28:09;;;;;;;56.13;19.20;;;1.00;99.90;;;;;;5014251;28;20067;-81
2022/01/10 04:30:35;;;;;;;75.75;21.60;;;1.00;99.90;;;;;;5014768;28;20087;-81
2022/01/10 04:33:02;;;;;;;58.08;19.30;;;1.00;99.90;;;;;;5029803;28;20178;-82
2022/01/10 04:35:29;;;;;;;71.50;20.50;;;1.10;99.90;;;;;;5012662;28;20057;-81
2022/01/10 04:37:55;;;;;;;60.22;19.33;;;1.00;99.90;;;;;;5040033;28;20037;-82
2022/01/10 04:40:21;;;;;;;62.35;19.15;;;1.00;99.90;;;;;;5023491;28;20519;-82
2022/01/10 04:42:47;;;;;;;62.78;20.88;;;1.00;99.90;;;;;;5040256;28;20060;-81
2022/01/10 04:45:13;;;;;;;65.40;20.38;;;1.10;99.90;;;;;;5034724;28;20415;-81
2022/01/10 04:47:39;;;;;;;56.13;18.42;;;1.10;99.90;;;;;;5040377;28;20039;-81
2022/01/10 04:52:33;;;;;;;66.68;21.88;;;1.10;99.90;;;;;;5035763;28;20404;-81
2022/01/10 04:55:00;;;;;;;73.97;21.50;;;1.00;99.90;;;;;;5036747;28;20033;-81
2022/01/10 04:57:26;;;;;;;62.70;20.15;;;1.10;99.90;;;;;;5027870;28;20045;-80
2022/01/10 04:59:52;;;;;;;54.70;19.98;;;1.20;99.90;;;;;;5035481;28;20037;-82
2022/01/10 05:02:18;;;;;;;76.00;21.10;;;1.10;99.90;;;;;;5025348;28;20048;-81
2022/01/10 05:04:44;;;;;;;81.85;22.15;;;1.10;99.90;;;;;;5022851;28;20525;-81
2022/01/10 05:07:09;;;;;;;66.28;21.42;;;1.00;99.90;;;;;;5027602;28;20136;-81
2022/01/10 05:09:35;;;;;;;69.30;20.88;;;1.00;99.90;;;;;;5022666;28;20037;-81
2022/01/10 05:12:01;;;;;;;60.55;21.45;;;1.10;99.90;;;;;;5025570;28;20047;-81
2022/01/10 05:14:27;;;;;;;97.63;21.88;;;1.10;99.90;;;;;;5024255;28;20150;-81
2022/01/10 05:16:52;;;;;;;78.05;23.27;;;1.10;99.90;;;;;;5022264;28;20077;-81
2022/01/10 05:19:18;;;;;;;69.47;23.20;;;1.00;99.90;;;;;;5022897;28;20037;-81
2022/01/10 05:21:44;;;;;;;81.78;24.48;;;1.10;99.90;;;;;;5009881;28;20493;-81
2022/01/10 05:24:10;;;;;;;80.70;24.70;;;1.10;99.90;;;;;;5033739;28;20095;-81
2022/01/10 05:26:36;;;;;;;69.70;23.02;;;1.10;99.90;;;;;;5035386;28;20041;-80
2022/01/10 05:29:04;;;;;;;60.28;22.25;;;1.00;99.90;;;;;;5036321;28;20373;-81
2022/01/10 05:31:33;;;;;;;64.82;23.73;;;1.10;99.90;;;;;;5025669;28;20491;-81
2022/01/10 05:33:59;;;;;;;75.30;24.42;;;0.90;99.90;;;;;;5034282;28;20396;-81
2022/01/10 05:36:25;;;;;;;76.45;24.67;;;1.00;99.90;;;;;;5037911;28;20117;-81
2022/01/10 05:38:50;;;;;;;55.95;21.65;;;0.90;99.90;;;;;;5017684;28;20551;-81
2022/01/10 05:41:16;;;;;;;74.63;24.25;;;0.90;99.90;;;;;;5018330;28;20049;-81
2022/01/10 05:43:43;;;;;;;73.63;23.92;;;0.90;99.90;;;;;;5018765;28;20090;-81
2022/01/10 05:46:11;;;;;;;78.70;24.70;;;0.90;99.90;;;;;;4997134;28;20346;-80
2022/01/10 05:48:39;;;;;;;70.82;24.90;;;0.90;99.90;;;;;;4997884;28;20529;-81
2022/01/10 05:51:05;;;;;;;81.72;26.67;;;1.00;99.90;;;;;;5017198;28;20417;-80
2022/01/10 05:53:31;;;;;;;73.63;25.77;;;1.00;99.90;;;;;;4996651;28;20038;-81
2022/01/10 05:55:57;;;;;;;69.35;25.25;;;1.10;99.90;;;;;;4997270;28;20307;-81
2022/01/10 05:58:23;;;;;;;83.80;28.13;;;1.20;99.90;;;;;;5017009;28;20128;-81
2022/01/10 06:00:49;;;;;;;86.97;28.17;;;1.10;99.90;;;;;;4993710;28;20277;-81
2022/01/10 06:03:15;;;;;;;101.82;29.75;;;1.10;99.90;;;;;;4995435;28;20163;-81
2022/01/10 06:05:41;;;;;;;87.65;28.17;;;0.90;99.90;;;;;;5018516;28;20038;-81
2022/01/10 06:08:08;;;;;;;73.78;25.77;;;1.00;99.90;;;;;;5018380;28;20088;-80
2022/01/10 06:10:34;;;;;;;87.72;26.90;;;0.90;99.90;;;;;;4976227;28;20492;-81
2022/01/10 06:13:00;;;;;;;92.82;28.15;;;0.90;99.90;;;;;;5015673;28;20037;-81
2022/01/10 06:15:26;;;;;;;77.93;26.98;;;0.80;99.90;;;;;;5015005;28;20048;-81
2022/01/10 06:17:52;;;;;;;82.32;27.35;;;0.80;99.90;;;;;;4993811;28;20050;-79
2022/01/10 06:20:18;;;;;;;83.05;27.42;;;0.80;99.90;;;;;;4991268;28;20398;-81
2022/01/10 06:22:44;;;;;;;94.05;29.48;;;0.90;99.90;;;;;;4996361;28;20042;-80
2022/01/10 06:25:17;;;;;;;76.88;27.38;;;0.90;99.90;;;;;;4992496;28;20338;-80
2022/01/10 06:27:43;;;;;;;96.65;30.35;;;0.90;99.90;;;;;;4994448;28;20057;-81
2022/01/10 06:30:11;;;;;;;89.65;28.02;;;0.80;99.90;;;;;;4999942;28;20041;-80
2022/01/10 06:32:37;;;;;;;93.93;30.45;;;0.70;99.90;;;;;;4994843;28;20488;-81
2022/01/10 06:35:03;;;;;;;100.35;29.85;;;0.70;99.90;;;;;;4999629;28;20049;-81
2022/01/10 06:37:28;;;;;;;109.43;31.52;;;0.80;99.90;;;;;;4994127;28;20045;-80
2022/01/10 06:39:54;;;;;;;114.38;32.53;;;0.70;99.90;;;;;;5007826;28;20056;-80
2022/01/10 06:42:20;;;;;;;98.97;29.85;;;0.60;99.90;;;;;;4998735;28;20536;-81
2022/01/10 06:44:46;;;;;;;95.57;30.55;;;0.50;99.90;;;;;;5013942;28;20673;-80
2022/01/10 06:47:11;;;;;;;114.13;30.55;;;0.50;99.90;;;;;;5032755;28;20036;-81
2022/01/10 06:49:37;;;;;;;83.15;28.17;;;0.50;99.90;;;;;;5039067;28;20503;-81
2022/01/10 06:52:04;;;;;;;81.35;30.92;;;0.40;99.90;;;;;;5038965;28;20033;-81
2022/01/10 06:54:29;;;;;;;79.47;29.60;;;0.50;99.90;;;;;;5036708;28;20368;-81
2022/01/10 06:56:58;;;;;;;82.22;27.67;;;0.30;99.90;;;;;;5016010;28;20040;-80
2022/01/10 06:59:25;;;;;;;70.82;26.02;;;0.20;99.90;;;;;;5032230;28;20048;-81
2022/01/10 07:01:53;;;;;;;77.50;25.40;;;0.20;99.90;;;;;;5016348;28;20155;-81
2022/01/10 07:04:19;;;;;;;61.47;25.02;;;0.20;99.90;;;;;;5035415;28;20040;-80
2022/01/10 07:06:45;;;;;;;87.40;27.38;;;0.20;99.90;;;;;;5015986;28;20033;-81
2022/01/10 07:09:11;;;;;;;112.25;28.77;;;0.20;99.90;;;;;;5036510;28;20506;-81
2022/01/10 07:11:37;;;;;;;82.50;25.10;;;0.10;99.90;;;;;;5031931;28;20074;-81
2022/01/10 07:14:04;;;;;;;86.30;27.40;;;0.10;99.90;;;;;;5037597;28;20044;-80
2022/01/10 07:16:30;;;;;;;65.78;25.70;;;0.10;99.90;;;;;;5016360;28;20336;-81
2022/01/10 07:18:55;;;;;;;57.85;25.60;;;0.00;99.90;;;;;;5019806;28;20037;-81
2022/01/10 07:21:21;;;;;;;71.72;25.95;;;0.00;99.90;;;;;;5013584;28;20049;-80
2022/01/10 07:23:48;;;;;;;81.50;28.35;;;0.00;99.90;;;;;;5016000;28;20123;-80
2022/01/10 07:26:14;;;;;;;76.78;25.65;;;0.00;99.90;;;;;;5015708;28;20052;-81
2022/01/10 07:28:40;;;;;;;75.88;28.50;;;0.00;99.90;;;;;;5023831;28;20524;-81
2022/01/10 07:31:06;;;;;;;73.45;28.50;;;0.00;99.90;;;;;;5013544;28;20160;-81
2022/01/10 07:33:32;;;;;;;76.38;27.40;;;0.00;99.90;;;;;;5017615;28;20042;-80
2022/01/10 07:35:57;;;;;;;69.22;28.48;;;-0.10;99.90;;;;;;5015588;28;20385;-80
2022/01/10 07:38:23;;;;;;;79.13;29.27;;;-0.10;99.90;;;;;;5016810;28;20049;-81
2022/01/10 07:40:49;;;;;;;75.75;28.30;;;-0.10;99.90;;;;;;5009600;28;20337;-80
2022/01/10 07:43:15;;;;;;;75.20;29.40;;;-0.10;99.90;;;;;;5032215;28;20037;-80
2022/01/10 07:45:41;;;;;;;68.15;27.50;;;-0.10;99.90;;;;;;5032792;28;20037;-80
2022/01/10 07:48:06;;;;;;;73.68;29.58;;;0.00;99.90;;;;;;5012881;28;20040;-80
2022/01/10 07:50:32;;;;;;;85.78;32.03;;;0.00;99.90;;;;;;5001525;28;20114;-80
2022/01/10 07:52:58;;;;;;;99.15;32.30;;;0.00;99.90;;;;;;5012973;28;20056;-80
2022/01/10 07:55:23;;;;;;;98.18;34.03;;;0.00;99.90;;;;;;5015459;28;20057;-80
2022/01/10 07:57:49;;;;;;;85.72;32.47;;;0.00;99.90;;;;;;5012143;28;20053;-81
2022/01/10 08:00:15;;;;;;;102.90;35.40;;;0.10;99.90;;;;;;5013966;28;20067;-80
2022/01/10 08:02:41;;;;;;;97.78;35.30;;;0.10;99.90;;;;;;5033712;28;20207;-80
2022/01/10 08:05:09;;;;;;;123.10;38.20;;;0.10;99.90;;;;;;5035650;28;20128;-80
2022/01/10 08:07:35;;;;;;;99.72;36.15;;;0.00;99.90;;;;;;5038561;28;20131;-80
2022/01/10 08:10:04;;;;;;;82.72;33.55;;;0.00;99.90;;;;;;5032085;28;20036;-81
2022/01/10 08:12:30;;;;;;;95.10;36.25;;;0.10;99.90;;;;;;5016643;28;20037;-81
2022/01/10 08:14:56;;;;;;;117.82;38.10;;;0.00;99.90;;;;;;5000788;28;20045;-80
2022/01/10 08:17:22;;;;;;;95.68;36.97;;;0.10;99.90;;;;;;5020026;28;20053;-81
2022/01/10 08:19:47;;;;;;;91.53;34.92;;;0.00;99.90;;;;;;5019961;28;20263;-80
2022/01/10 08:22:13;;;;;;;85.35;34.13;;;0.00;99.90;;;;;;5035485;28;20489;-80
2022/01/10 08:24:39;;;;;;;85.57;33.00;;;0.10;99.90;;;;;;5031878;28;20040;-80
2022/01/10 08:27:05;;;;;;;83.20;35.92;;;0.10;99.90;;;;;;5032184;28;20068;-81
2022/01/10 08:29:31;;;;;;;86.70;34.95;;;0.10;99.90;;;;;;5014108;28;20037;-80
2022/01/10 08:31:58;;;;;;;109.00;38.67;;;0.10;99.90;;;;;;5032122;28;20113;-80
2022/01/10 08:34:26;;;;;;;101.00;37.40;;;0.10;99.90;;;;;;5012375;28;20037;-80
2022/01/10 08:36:52;;;;;;;81.70;35.28;;;0.20;99.90;;;;;;5015106;28;20033;-80
2022/01/10 08:39:18;;;;;;;73.25;33.65;;;0.30;99.90;;;;;;5018422;28;20057;-80
2022/01/10 08:41:44;;;;;;;101.85;39.03;;;0.40;99.90;;;;;;5029339;28;20041;-81
2022/01/10 08:44:10;;;;;;;90.28;35.22;;;0.40;99.90;;;;;;5039546;28;20041;-80
2022/01/10 08:46:36;;;;;;;85.93;36.65;;;0.40;99.90;;;;;;5019522;28;20405;-81
2022/01/10 08:49:03;;;;;;;101.43;40.03;;;0.40;99.90;;;;;;5038150;28;20381;-80
2022/01/10 08:51:29;;;;;;;90.97;38.53;;;0.50;99.90;;;;;;5035338;28;20174;-80
2022/01/10 08:53:55;;;;;;;96.80;40.30;;;0.50;99.90;;;;;;5036844;28;20045;-81
2022/01/10 08:56:21;;;;;;;116.40;42.30;;;0.60;99.90;;;;;;5028836;28;20112;-80
2022/01/10 08:58:47;;;;;;;101.03;40.25;;;0.60;99.90;;;;;;5025040;28;20562;-80
2022/01/10 09:01:12;;;;;;;103.50;40.63;;;0.70;99.90;;;;;;5038629;28;20048;-80
2022/01/10 09:03:38;;;;;;;124.32;44.85;;;0.80;99.90;;;;;;5046982;28;20040;-81
2022/01/10 09:06:04;;;;;;;102.57;42.95;;;0.90;99.90;;;;;;5023668;28;20388;-80
2022/01/10 09:08:33;;;;;;;95.57;41.53;;;0.90;99.90;;;;;;5043249;28;20047;-81
2022/01/10 09:11:00;;;;;;;114.70;41.90;;;1.00;99.90;;;;;;5016100;28;20047;-81
2022/01/10 09:13:26;;;;;;;100.00;39.38;;;1.10;99.90;;;;;;5019634;28;20433;-81
2022/01/10 09:15:52;;;;;;;103.60;41.00;;;1.10;99.90;;;;;;5030223;28;20037;-81
2022/01/10 09:18:18;;;;;;;110.28;43.13;;;1.20;99.90;;;;;;5021049;28;20380;-81
2022/01/10 09:20:44;;;;;;;118.72;43.75;;;1.30;99.90;;;;;;5015985;28;20131;-81
2022/01/10 09:23:10;;;;;;;115.22;43.60;;;1.40;99.90;;;;;;5001712;28;20132;-80
2022/01/10 09:25:36;;;;;;;97.18;41.58;;;1.40;99.90;;;;;;5019396;28;20045;-80
2022/01/10 09:28:02;;;;;;;118.53;44.50;;;1.50;99.90;;;;;;5015257;28;20290;-81
2022/01/10 09:30:28;;;;;;;129.82;46.75;;;1.50;99.90;;;;;;5021108;28;20044;-80
2022/01/10 09:32:54;;;;;;;103.45;43.95;;;1.60;99.90;;;;;;5037610;28;20052;-81
2022/01/10 09:35:21;;;;;;;120.80;47.00;;;1.60;99.90;;;;;;5017820;28;20041;-81
2022/01/10 09:37:47;;;;;;;111.13;46.47;;;1.70;99.90;;;;;;5041067;28;20360;-80
2022/01/10 09:40:13;;;;;;;103.18;44.92;;;1.70;99.90;;;;;;5006182;28;20049;-81
2022/01/10 09:42:42;;;;;;;104.53;45.65;;;1.70;99.90;;;;;;5020868;28;20492;-80
2022/01/10 09:45:09;;;;;;;95.43;42.88;;;1.80;99.90;;;;;;5026686;28;20499;-80
2022/01/10 09:47:35;;;;;;;108.63;46.75;;;1.90;99.90;;;;;;5024404;28;20057;-80
2022/01/10 09:50:01;;;;;;;97.78;43.90;;;1.90;99.90;;;;;;5040328;28;20041;-80
2022/01/10 09:52:28;;;;;;;107.25;46.22;;;2.10;99.90;;;;;;5022586;28;20341;-80
2022/01/10 09:54:54;;;;;;;116.15;48.47;;;2.20;99.90;;;;;;5022999;28;20045;-80
2022/01/10 09:57:20;;;;;;;109.32;48.38;;;2.20;99.90;;;;;;5025930;28;20052;-80
2022/01/10 09:59:47;;;;;;;119.63;48.35;;;2.30;99.90;;;;;;5019336;28;20128;-81
2022/01/10 10:02:17;;;;;;;101.60;47.05;;;2.30;99.90;;;;;;5018078;28;20128;-81
2022/01/10 10:04:43;;;;;;;95.57;44.70;;;2.30;99.90;;;;;;5025222;28;20040;-80
2022/01/10 10:07:13;;;;;;;105.07;47.25;;;2.40;99.90;;;;;;5043425;28;20037;-81
2022/01/10 10:09:39;;;;;;;104.95;47.15;;;2.50;99.90;;;;;;5024458;28;20461;-81
2022/01/10 10:12:05;;;;;;;99.95;46.90;;;2.50;99.90;;;;;;5043727;28;20231;-80
2022/01/10 10:14:31;;;;;;;101.38;49.38;;;2.60;99.90;;;;;;5020834;28;20179;-80
2022/01/10 10:16:58;;;;;;;107.25;48.70;;;2.60;99.90;;;;;;5040895;28;20051;-80
2022/01/10 10:19:25;;;;;;;99.90;47.75;;;2.70;99.90;;;;;;5042417;28;20046;-80
2022/01/10 10:21:53;;;;;;;98.15;46.28;;;2.70;99.90;;;;;;5043353;28;20120;-80
2022/01/10 10:24:19;;;;;;;101.10;46.40;;;2.80;99.90;;;;;;5047895;28;21069;-80
2022/01/10 10:26:46;;;;;;;100.90;46.05;;;2.80;99.90;;;;;;5039148;28;20045;-81
2022/01/10 10:29:17;;;;;;;88.85;43.60;;;2.90;99.90;;;;;;5024014;28;20055;-80
2022/01/10 10:31:55;;;;;;;90.90;44.22;;;3.00;99.90;;;;;;5020053;28;20103;-80
2022/01/10 10:34:27;;;;;;;96.68;46.30;;;3.00;99.90;;;;;;5034309;28;20053;-80
2022/01/10 10:37:12;;;;;;;89.47;45.55;;;3.20;99.90;;;;;;5017217;28;20091;-80
2022/01/10 10:39:41;;;;;;;87.35;44.08;;;3.20;99.90;;;;;;5026376;28;20493;-81
2022/01/10 10:42:13;;;;;;;91.63;44.58;;;3.20;99.90;;;;;;4983904;28;20045;-80
2022/01/10 10:44:39;;;;;;;84.22;44.67;;;3.40;99.90;;;;;;5012886;28;20029;-79
2022/01/10 10:47:06;;;;;;;79.47;44.85;;;3.40;99.90;;;;;;5011816;28;20149;-80
2022/01/10 10:49:37;;;;;;;76.18;40.60;;;3.50;99.90;;;;;;4992694;28;20080;-80
2022/01/10 10:52:06;;;;;;;78.53;42.33;;;3.50;99.90;;;;;;4994612;28;20038;-80
2022/01/10 10:54:34;;;;;;;72.00;40.97;;;3.50;99.90;;;;;;5015642;28;20505;-80
2022/01/10 10:57:02;;;;;;;81.28;41.38;;;3.60;99.90;;;;;;4994704;28;20049;-79
2022/01/10 10:59:30;;;;;;;83.97;43.50;;;3.70;99.90;;;;;;5010426;28;20058;-80
2022/01/10 11:01:57;;;;;;;76.15;40.95;;;3.70;99.90;;;;;;5013560;28;20451;-79
2022/01/10 11:04:24;;;;;;;73.05;41.80;;;3.80;99.90;;;;;;5001385;28;20033;-80
2022/01/10 11:06:50;;;;;;;77.57;41.45;;;3.80;99.90;;;;;;5015215;28;20033;-80
2022/01/10 11:09:16;;;;;;;81.30;42.30;;;3.90;99.90;;;;;;4996806;28;20088;-80
2022/01/10 11:11:43;;;;;;;77.57;41.38;;;3.90;99.90;;;;;;4990776;28;20496;-80
2022/01/10 11:14:10;;;;;;;70.13;39.35;;;4.00;99.90;;;;;;4980888;28;20735;-80
2022/01/10 11:16:39;;;;;;;83.30;41.58;;;4.10;99.90;;;;;;4991762;28;20041;-80
2022/01/10 11:19:12;;;;;;;85.03;42.13;;;4.00;99.90;;;;;;4991225;28;20125;-80
2022/01/10 11:21:40;;;;;;;69.47;39.25;;;4.10;99.90;;;;;;5013882;28;20046;-80
2022/01/10 11:24:06;;;;;;;85.25;39.88;;;4.10;99.90;;;;;;4997033;28;20416;-80
2022/01/10 11:26:40;;;;;;;81.40;39.95;;;4.20;99.90;;;;;;5012119;28;20046;-80
2022/01/10 11:29:09;;;;;;;70.13;39.25;;;4.20;99.90;;;;;;5009675;28;20630;-80
2022/01/10 11:31:37;;;;;;;76.28;40.22;;;4.30;99.90;;;;;;5012692;28;20103;-80
2022/01/10 11:34:03;;;;;;;71.32;38.90;;;4.30;99.90;;;;;;4995121;28;20057;-80
2022/01/10 11:36:31;;;;;;;71.90;39.92;;;4.30;99.90;;;;;;5012257;28;20033;-80
2022/01/10 11:39:08;;;;;;;73.85;38.95;;;4.30;99.90;;;;;;5000455;28;20045;-80
2022/01/10 11:41:34;;;;;;;61.38;37.05;;;4.30;99.90;;;;;;5018590;28;20484;-81
2022/01/10 11:46:49;;;;;;;62.72;37.65;;;4.50;99.90;;;;;;5036440;28;20109;-80
2022/01/10 11:49:18;;;;;;;66.43;36.92;;;4.50;99.90;;;;;;5012185;28;20041;-80
2022/01/10 11:51:50;;;;;;;60.15;35.20;;;4.50;99.90;;;;;;5015751;28;20408;-80
2022/01/10 11:54:36;;;;;;;65.88;36.85;;;4.60;99.90;;;;;;5014568;28;20119;-80
2022/01/10 11:57:04;;;;;;;67.63;36.63;;;4.60;99.90;;;;;;5001726;28;20059;-80
2022/01/10 11:59:42;;;;;;;64.22;35.22;;;4.70;99.90;;;;;;5033731;28;20049;-80
2022/01/10 12:02:19;;;;;;;62.28;32.97;;;4.70;99.90;;;;;;5020529;28;20128;-80
2022/01/10 12:05:04;;;;;;;56.65;33.10;;;4.80;99.90;;;;;;5019499;28;20284;-80
2022/01/10 12:07:30;;;;;;;55.93;33.23;;;4.80;99.90;;;;;;5016470;28;20284;-79
2022/01/10 12:09:57;;;;;;;54.22;32.15;;;4.80;99.90;;;;;;5031806;28;20044;-80
2022/01/10 12:12:29;;;;;;;55.67;31.63;;;4.80;99.90;;;;;;5033702;28;20448;-80
2022/01/10 12:14:56;;;;;;;62.28;33.72;;;4.90;99.90;;;;;;5011128;28;20070;-80
2022/01/10 12:17:22;;;;;;;49.75;31.75;;;5.00;99.90;;;;;;4997749;28;20033;-81
2022/01/10 12:19:48;;;;;;;58.78;33.30;;;5.00;99.90;;;;;;4997771;28;20048;-81
2022/01/10 12:22:14;;;;;;;58.33;32.28;;;5.10;99.90;;;;;;5036900;28;20037;-81
2022/01/10 12:24:42;;;;;;;51.72;30.92;;;5.20;99.90;;;;;;5029270;28;20069;-80
2022/01/10 12:27:12;;;;;;;50.03;29.60;;;5.20;99.90;;;;;;5031008;28;20040;-81
2022/01/10 12:29:38;;;;;;;49.25;29.17;;;5.30;99.90;;;;;;5011409;28;20509;-80
2022/01/10 12:32:05;;;;;;;51.50;30.70;;;5.30;99.90;;;;;;5014472;28;20539;-81
2022/01/10 12:34:31;;;;;;;46.00;29.88;;;5.40;99.90;;;;;;5015432;28;20427;-81
2022/01/10 12:36:56;;;;;;;50.17;29.75;;;5.40;99.90;;;;;;5033564;28;20079;-80
2022/01/10 12:39:28;;;;;;;53.15;31.20;;;5.40;99.90;;;;;;5020897;28;20464;-81
2022/01/10 12:41:59;;;;;;;48.30;28.48;;;5.50;99.90;;;;;;5000960;28;20053;-81
2022/01/10 12:44:28;;;;;;;45.53;27.95;;;5.60;99.90;;;;;;5021280;28;20078;-81
2022/01/10 12:46:55;;;;;;;47.35;27.73;;;5.60;99.90;;;;;;5038304;28;20066;-81
2022/01/10 12:49:21;;;;;;;45.00;28.38;;;5.60;99.90;;;;;;5040539;28;20606;-80
2022/01/10 12:51:55;;;;;;;42.28;26.70;;;5.60;99.90;;;;;;5001486;28;20128;-80